Time;durP1;ratioP1;P1;durP2;ratioP2;P2;SDS_P1;SDS_P2;PMS_P1;PMS_P2;Temp;Humidity;BMP_temperature;BMP_pressure;BME280_temperature;BME280_humidity;BME280_pressure;Samples;Min_cycle;Max_cycle;Signal;HPM_P1;HPM_P2
2022/12/22 03:25:51;;;;;;;2.90;2.30;;;7.60;97.30;;;;;;4993875;28;20443;-85
2022/12/22 03:28:18;;;;;;;1.13;1.03;;;7.60;97.30;;;;;;4975527;28;20461;-85
2022/12/22 03:30:43;;;;;;;3.50;2.43;;;7.70;97.30;;;;;;4975921;28;20421;-85
2022/12/22 03:33:09;;;;;;;3.80;1.93;;;7.70;97.30;;;;;;4989136;28;20511;-85
2022/12/22 03:38:55;;;;;;;3.60;3.40;;;7.70;97.30;;;;;;4941286;29;20214;-84
2022/12/22 03:47:56;;;;;;;2.37;2.17;;;7.90;97.30;;;;;;5012726;28;20459;-85
2022/12/22 03:50:24;;;;;;;3.97;2.47;;;8.00;97.30;;;;;;4982491;28;20521;-85
2022/12/22 03:53:34;;;;;;;8.53;1.87;;;8.10;97.30;;;;;;4974260;28;20644;-86
2022/12/22 03:56:02;;;;;;;4.40;2.60;;;8.10;97.30;;;;;;4963270;28;20423;-85
2022/12/22 03:58:32;;;;;;;6.20;3.57;;;8.10;97.30;;;;;;4975255;28;20503;-87
2022/12/22 04:01:06;;;;;;;3.00;2.80;;;8.20;97.30;;;;;;4956021;28;20425;-85
2022/12/22 04:03:31;;;;;;;5.13;3.60;;;8.20;97.30;;;;;;4972945;28;20971;-83
2022/12/22 04:05:57;;;;;;;4.87;2.50;;;8.20;97.30;;;;;;4973353;28;20422;-85
2022/12/22 04:08:22;;;;;;;3.00;2.03;;;8.20;97.30;;;;;;4974520;28;20214;-85
2022/12/22 04:13:32;;;;;;;3.23;2.90;;;8.30;97.30;;;;;;4979032;28;20181;-84
2022/12/22 04:15:57;;;;;;;1.17;1.07;;;8.30;97.30;;;;;;4967040;28;20919;-85
2022/12/22 04:18:23;;;;;;;3.17;2.97;;;8.40;97.30;;;;;;4986701;28;20186;-85
2022/12/22 04:20:48;;;;;;;2.80;1.93;;;8.40;97.30;;;;;;4973977;28;20186;-85
2022/12/22 04:23:14;;;;;;;2.73;2.43;;;8.50;97.30;;;;;;4975196;28;20398;-86
2022/12/22 04:25:39;;;;;;;2.63;2.53;;;8.50;97.30;;;;;;4974126;28;20198;-85
2022/12/22 04:28:05;;;;;;;2.20;2.00;;;8.60;97.30;;;;;;4987334;28;20214;-85
2022/12/22 04:30:30;;;;;;;3.97;1.80;;;8.60;97.30;;;;;;4975286;28;20178;-85
2022/12/22 04:32:56;;;;;;;1.80;1.60;;;8.70;97.30;;;;;;4973070;28;20182;-86
2022/12/22 04:35:21;;;;;;;3.63;2.80;;;8.70;97.30;;;;;;4973587;28;20697;-84
2022/12/22 04:37:46;;;;;;;1.83;1.73;;;8.70;97.30;;;;;;4973859;28;20210;-85
2022/12/22 04:40:12;;;;;;;1.63;1.53;;;8.80;97.30;;;;;;4982766;28;20188;-85
2022/12/22 04:42:37;;;;;;;1.50;1.40;;;8.80;97.30;;;;;;4962074;28;20192;-85
2022/12/22 04:45:03;;;;;;;1.43;1.43;;;8.80;97.30;;;;;;4975208;28;20759;-83
2022/12/22 04:47:29;;;;;;;2.60;1.90;;;8.80;97.30;;;;;;4971808;28;20205;-86
2022/12/22 04:49:54;;;;;;;0.90;0.80;;;8.80;97.30;;;;;;4946652;28;20851;-85
2022/12/22 04:52:20;;;;;;;1.60;1.30;;;8.80;97.30;;;;;;4952250;28;20171;-83
2022/12/22 04:54:46;;;;;;;2.30;2.20;;;8.80;97.30;;;;;;4969635;28;20206;-85
2022/12/22 04:57:11;;;;;;;1.27;1.17;;;8.90;97.30;;;;;;4951701;28;20215;-85
2022/12/22 04:59:37;;;;;;;2.43;2.23;;;8.90;97.30;;;;;;4950085;28;20655;-85
2022/12/22 05:02:02;;;;;;;1.30;1.20;;;8.90;97.30;;;;;;4954904;28;20175;-85
2022/12/22 05:04:28;;;;;;;1.87;1.83;;;8.90;97.30;;;;;;4953434;28;20265;-84
2022/12/22 05:06:53;;;;;;;1.57;1.53;;;8.90;97.30;;;;;;4976153;28;20210;-84
2022/12/22 05:09:19;;;;;;;1.67;1.57;;;8.90;97.30;;;;;;4954800;28;20840;-85
2022/12/22 05:11:44;;;;;;;2.30;2.10;;;9.00;97.30;;;;;;4959091;28;20180;-84
2022/12/22 05:14:10;;;;;;;1.93;1.83;;;9.00;97.30;;;;;;4969891;28;20252;-85
2022/12/22 05:16:35;;;;;;;2.47;2.30;;;8.90;97.30;;;;;;4984208;28;20182;-84
2022/12/22 05:19:01;;;;;;;4.30;1.97;;;9.00;97.30;;;;;;4970582;28;20182;-85
2022/12/22 05:21:26;;;;;;;1.50;1.40;;;9.00;97.30;;;;;;4973887;28;20215;-85
2022/12/22 05:23:52;;;;;;;1.13;1.03;;;8.90;97.30;;;;;;4969422;28;20792;-85
2022/12/22 05:26:18;;;;;;;2.17;1.70;;;8.90;97.30;;;;;;4976683;28;20638;-84
2022/12/22 05:28:45;;;;;;;1.77;1.43;;;8.90;97.30;;;;;;4962731;28;20277;-85
2022/12/22 05:31:16;;;;;;;1.43;1.40;;;8.90;97.30;;;;;;4967257;28;20514;-85
2022/12/22 05:33:42;;;;;;;8.20;2.53;;;8.90;97.30;;;;;;4970431;28;20417;-84
2022/12/22 05:36:07;;;;;;;2.57;2.37;;;8.90;97.30;;;;;;4957493;28;20489;-85
2022/12/22 05:38:33;;;;;;;1.73;1.73;;;8.90;97.30;;;;;;4962340;28;20638;-85
2022/12/22 05:40:58;;;;;;;8.03;1.60;;;8.80;97.30;;;;;;4978231;28;20186;-86
2022/12/22 05:43:24;;;;;;;1.50;1.40;;;8.80;97.30;;;;;;4983944;28;20556;-85
2022/12/22 05:45:49;;;;;;;2.80;1.37;;;8.80;97.30;;;;;;4964007;28;20222;-85
2022/12/22 05:48:15;;;;;;;1.77;1.67;;;8.80;97.30;;;;;;4977378;28;20245;-85
2022/12/22 05:50:40;;;;;;;1.53;1.43;;;8.80;97.30;;;;;;4977231;28;20178;-85
2022/12/22 05:53:06;;;;;;;2.50;1.97;;;8.80;97.30;;;;;;4964754;28;20664;-84
2022/12/22 05:55:32;;;;;;;2.10;1.83;;;8.80;97.30;;;;;;4957845;28;20194;-86
2022/12/22 05:58:01;;;;;;;1.60;1.50;;;8.80;97.30;;;;;;4971569;28;20426;-85
2022/12/22 06:00:30;;;;;;;3.53;2.17;;;8.70;97.30;;;;;;4974355;28;20414;-86
2022/12/22 06:02:56;;;;;;;1.93;1.83;;;8.70;97.30;;;;;;4945417;28;20430;-85
2022/12/22 06:05:22;;;;;;;3.33;1.17;;;8.70;97.30;;;;;;4958775;28;20541;-85
2022/12/22 06:07:48;;;;;;;1.27;1.17;;;8.70;97.30;;;;;;4957735;28;20605;-85
2022/12/22 06:10:14;;;;;;;8.00;1.93;;;8.70;97.30;;;;;;4974285;28;20473;-85
2022/12/22 06:12:40;;;;;;;1.53;1.37;;;8.70;97.30;;;;;;4997899;23;20217;-90
2022/12/22 06:15:08;;;;;;;4.40;3.40;;;8.70;97.30;;;;;;4970070;28;20432;-88
2022/12/22 06:17:34;;;;;;;1.50;1.40;;;8.60;97.30;;;;;;4974618;28;20452;-86
2022/12/22 06:19:59;;;;;;;1.37;1.27;;;8.60;97.30;;;;;;4975027;28;20950;-88
2022/12/22 06:22:24;;;;;;;2.10;1.97;;;8.60;97.30;;;;;;4974683;28;20177;-88
2022/12/22 06:24:53;;;;;;;5.57;2.47;;;8.60;97.30;;;;;;4973589;28;20457;-84
2022/12/22 06:27:18;;;;;;;2.07;1.93;;;8.60;97.30;;;;;;4962846;28;20220;-87
2022/12/22 06:29:44;;;;;;;2.33;2.13;;;8.60;97.30;;;;;;4972749;28;20433;-87
2022/12/22 06:32:09;;;;;;;2.77;1.90;;;8.60;97.30;;;;;;4973568;28;20174;-87
2022/12/22 06:34:35;;;;;;;6.30;1.93;;;8.60;97.30;;;;;;4974719;28;20608;-88
2022/12/22 06:37:00;;;;;;;2.60;2.27;;;8.60;97.30;;;;;;4969000;28;20234;-88
2022/12/22 06:39:26;;;;;;;1.63;1.53;;;8.60;97.30;;;;;;4971029;28;20547;-88
2022/12/22 06:44:35;;;;;;;2.63;1.40;;;8.70;97.30;;;;;;4985820;28;20208;-88
2022/12/22 06:47:01;;;;;;;2.43;2.23;;;8.70;97.30;;;;;;4956306;28;20450;-88
2022/12/22 06:49:26;;;;;;;1.07;1.00;;;8.70;97.30;;;;;;4974303;28;20414;-87
2022/12/22 06:51:52;;;;;;;2.43;1.57;;;8.70;97.30;;;;;;4990739;28;20398;-88
2022/12/22 06:54:18;;;;;;;2.53;1.90;;;8.80;97.30;;;;;;4991747;28;20193;-88
2022/12/22 06:56:43;;;;;;;1.77;1.67;;;8.80;97.30;;;;;;4974005;28;20568;-87
2022/12/22 06:59:11;;;;;;;6.33;1.20;;;8.80;97.30;;;;;;4966802;28;20185;-88
2022/12/22 07:01:36;;;;;;;1.40;1.13;;;8.80;97.30;;;;;;4973313;28;20240;-87
2022/12/22 07:04:02;;;;;;;2.07;1.93;;;8.80;97.30;;;;;;4991540;28;20449;-88
2022/12/22 07:06:28;;;;;;;1.83;1.43;;;8.90;97.30;;;;;;4966576;28;20192;-88
2022/12/22 07:08:53;;;;;;;1.43;1.33;;;8.90;97.30;;;;;;4991587;28;20218;-88
2022/12/22 07:11:18;;;;;;;2.20;2.03;;;8.90;97.30;;;;;;4973738;28;20178;-86
2022/12/22 07:13:44;;;;;;;1.60;1.50;;;8.90;97.30;;;;;;4973881;28;20695;-88
2022/12/22 07:16:10;;;;;;;1.90;1.33;;;8.90;97.30;;;;;;4968163;28;20185;-88
2022/12/22 07:18:40;;;;;;;1.40;1.30;;;8.90;97.30;;;;;;4966819;28;20189;-87
2022/12/22 07:21:12;;;;;;;2.00;1.27;;;9.00;97.30;;;;;;4973131;28;20177;-87
2022/12/22 07:23:38;;;;;;;1.00;0.90;;;9.00;97.30;;;;;;4977707;28;20452;-87
2022/12/22 07:26:06;;;;;;;2.30;2.13;;;9.10;97.30;;;;;;4964235;28;20539;-88
2022/12/22 07:28:33;;;;;;;1.20;1.10;;;9.10;97.30;;;;;;4970992;28;20795;-87
2022/12/22 07:30:58;;;;;;;1.30;1.20;;;9.10;97.30;;;;;;4980713;28;20428;-87
2022/12/22 07:33:24;;;;;;;1.50;1.40;;;9.10;97.30;;;;;;4961053;28;20504;-88
2022/12/22 07:36:03;;;;;;;3.43;1.63;;;9.10;97.30;;;;;;4964611;28;20676;-90
2022/12/22 07:38:31;;;;;;;1.77;1.67;;;9.10;97.30;;;;;;4969778;28;20292;-90
2022/12/22 07:40:58;;;;;;;2.17;2.00;;;9.10;97.30;;;;;;4967502;28;20425;-90
2022/12/22 07:43:23;;;;;;;4.20;1.47;;;9.10;97.30;;;;;;4973327;28;20451;-90
2022/12/22 07:45:49;;;;;;;1.30;1.20;;;9.10;97.30;;;;;;4968278;28;20798;-88
2022/12/22 07:51:02;;;;;;;1.30;1.20;;;9.10;97.30;;;;;;4983088;28;20181;-87
2022/12/22 07:53:28;;;;;;;1.60;1.50;;;9.10;97.30;;;;;;4968798;28;20453;-88
2022/12/22 07:55:53;;;;;;;3.17;2.40;;;9.20;97.30;;;;;;4971679;28;20484;-89
2022/12/22 07:58:18;;;;;;;0.90;0.80;;;9.20;97.30;;;;;;4984826;28;20185;-89
2022/12/22 08:00:44;;;;;;;1.20;1.10;;;9.10;97.30;;;;;;4962523;28;20237;-88
2022/12/22 08:03:09;;;;;;;1.03;0.93;;;9.10;97.30;;;;;;4972172;28;20208;-90
2022/12/22 08:05:37;;;;;;;1.53;1.43;;;9.10;97.30;;;;;;4972012;28;20196;-91
2022/12/22 08:08:02;;;;;;;2.70;1.63;;;9.10;97.30;;;;;;4962395;28;20210;-91
2022/12/22 08:10:28;;;;;;;2.10;1.80;;;9.10;97.30;;;;;;4966595;28;20425;-88
2022/12/22 08:12:53;;;;;;;0.90;0.80;;;9.10;97.30;;;;;;4968726;28;20226;-89
2022/12/22 08:15:19;;;;;;;1.10;1.00;;;9.10;97.30;;;;;;4972257;28;20174;-88
2022/12/22 08:17:44;;;;;;;1.53;1.43;;;9.00;97.30;;;;;;4989149;28;20272;-89
2022/12/22 08:20:10;;;;;;;2.57;1.43;;;9.00;97.30;;;;;;4960215;28;20214;-89
2022/12/22 08:22:36;;;;;;;7.33;1.60;;;9.00;97.30;;;;;;4967319;28;20190;-89
2022/12/22 08:25:01;;;;;;;0.97;0.90;;;9.00;97.30;;;;;;4970394;28;20189;-90
2022/12/22 08:27:38;;;;;;;1.10;1.00;;;9.00;97.30;;;;;;4969454;28;20201;-89
2022/12/22 08:30:06;;;;;;;1.13;1.07;;;9.00;97.30;;;;;;4964176;28;20188;-86
2022/12/22 08:32:32;;;;;;;1.30;1.20;;;9.00;97.30;;;;;;4969178;28;20460;-86
2022/12/22 08:34:58;;;;;;;1.13;1.03;;;9.00;97.30;;;;;;4971264;28;20473;-86
2022/12/22 08:37:27;;;;;;;1.30;1.20;;;9.00;97.30;;;;;;4976388;28;20425;-86
2022/12/22 08:40:00;;;;;;;1.93;1.83;;;9.00;97.30;;;;;;4976876;28;20622;-89
2022/12/22 08:42:25;;;;;;;0.90;0.80;;;9.00;97.30;;;;;;4976987;28;20464;-86
2022/12/22 08:44:52;;;;;;;1.03;0.93;;;9.00;97.30;;;;;;4975264;28;20445;-85
2022/12/22 08:47:19;;;;;;;1.00;0.90;;;9.00;97.30;;;;;;4966558;28;20224;-84
2022/12/22 08:49:45;;;;;;;0.97;0.87;;;9.00;97.30;;;;;;4971107;28;20417;-85
2022/12/22 08:52:10;;;;;;;2.00;1.13;;;9.00;97.30;;;;;;4984955;28;20428;-86
2022/12/22 08:54:36;;;;;;;1.90;1.60;;;9.00;97.30;;;;;;4994933;28;20197;-83
2022/12/22 08:57:01;;;;;;;1.63;1.53;;;9.00;97.30;;;;;;4986725;28;20206;-84
2022/12/22 08:59:27;;;;;;;1.37;1.33;;;9.00;97.30;;;;;;4970598;28;20830;-83
2022/12/22 09:01:52;;;;;;;1.57;1.47;;;9.00;97.30;;;;;;4989172;28;20197;-84
2022/12/22 09:04:20;;;;;;;1.37;1.37;;;9.00;97.30;;;;;;4976488;28;20273;-86
2022/12/22 09:06:46;;;;;;;1.23;1.20;;;9.00;97.30;;;;;;4972245;28;20183;-87
2022/12/22 09:09:12;;;;;;;1.73;1.63;;;9.10;97.30;;;;;;4964756;28;20413;-87
2022/12/22 09:11:39;;;;;;;1.57;1.37;;;9.00;97.30;;;;;;4968736;28;20182;-87
2022/12/22 09:14:05;;;;;;;1.00;0.90;;;9.10;97.30;;;;;;4970213;28;21027;-87
2022/12/22 09:16:32;;;;;;;1.00;0.90;;;9.10;97.30;;;;;;4973420;28;20472;-87
2022/12/22 09:18:58;;;;;;;1.13;1.03;;;9.10;97.30;;;;;;4969386;28;20421;-86
2022/12/22 09:21:24;;;;;;;1.20;1.10;;;9.10;97.30;;;;;;4966235;28;20517;-87
2022/12/22 09:23:50;;;;;;;1.67;1.63;;;9.10;97.30;;;;;;4963023;28;20302;-88
2022/12/22 09:26:19;;;;;;;2.70;1.53;;;9.20;97.30;;;;;;4971336;28;20513;-87
2022/12/22 09:28:44;;;;;;;2.73;1.30;;;9.20;97.30;;;;;;4973632;28;20461;-87
2022/12/22 09:31:11;;;;;;;1.30;1.20;;;9.20;97.30;;;;;;4967289;28;20426;-89
2022/12/22 09:33:36;;;;;;;2.60;1.10;;;9.20;97.30;;;;;;4973874;28;20208;-89
2022/12/22 09:36:26;;;;;;;2.93;1.10;;;9.20;97.30;;;;;;4963431;28;20492;-90
2022/12/22 09:38:52;;;;;;;2.80;1.90;;;9.30;97.30;;;;;;4962522;28;20193;-90
2022/12/22 09:41:35;;;;;;;1.20;1.10;;;9.30;97.30;;;;;;4965705;28;20422;-91
2022/12/22 09:44:05;;;;;;;1.67;1.57;;;9.30;97.30;;;;;;4972482;28;21026;-88
2022/12/22 09:46:34;;;;;;;1.00;0.90;;;9.30;97.30;;;;;;4991983;28;20412;-88
2022/12/22 09:49:00;;;;;;;1.90;1.00;;;9.40;97.30;;;;;;4975358;28;20459;-87
2022/12/22 09:51:26;;;;;;;1.93;1.73;;;9.40;97.30;;;;;;4985872;28;20417;-88
2022/12/22 09:53:57;;;;;;;1.27;1.17;;;9.40;97.30;;;;;;4973512;28;20205;-87
2022/12/22 09:56:24;;;;;;;1.00;0.90;;;9.40;97.30;;;;;;4969813;28;20420;-87
2022/12/22 09:58:49;;;;;;;2.77;1.63;;;9.40;97.30;;;;;;4993059;28;20429;-88
2022/12/22 10:01:40;;;;;;;1.33;1.30;;;9.50;97.30;;;;;;4973282;28;20414;-87
2022/12/22 10:04:20;;;;;;;1.73;1.63;;;9.50;97.30;;;;;;4966349;28;20206;-88
2022/12/22 10:07:02;;;;;;;3.93;3.03;;;9.50;97.30;;;;;;4970945;28;20421;-88
2022/12/22 10:09:30;;;;;;;1.23;1.13;;;9.60;97.30;;;;;;4975956;28;20799;-87
2022/12/22 10:11:58;;;;;;;1.67;1.47;;;9.60;97.30;;;;;;4982927;28;20416;-88
2022/12/22 10:14:34;;;;;;;1.23;1.00;;;9.60;97.30;;;;;;4969915;28;20812;-87
2022/12/22 10:17:18;;;;;;;1.43;1.37;;;9.70;97.30;;;;;;4965621;28;20469;-88
2022/12/22 10:19:45;;;;;;;1.17;1.07;;;9.70;97.30;;;;;;4975124;28;20420;-88
2022/12/22 10:22:28;;;;;;;1.30;1.07;;;9.80;97.30;;;;;;4991835;28;20409;-88
2022/12/22 10:24:53;;;;;;;1.27;1.17;;;9.80;97.30;;;;;;4964352;28;20417;-87
2022/12/22 10:27:22;;;;;;;1.53;1.43;;;9.90;97.30;;;;;;4970344;28;21031;-88
2022/12/22 10:29:48;;;;;;;1.83;1.53;;;9.90;97.30;;;;;;4973222;28;20228;-91
2022/12/22 10:32:17;;;;;;;2.60;2.40;;;9.90;97.30;;;;;;4973656;28;20492;-91
2022/12/22 10:35:04;;;;;;;1.00;0.90;;;9.90;97.30;;;;;;4975094;28;20197;-90
2022/12/22 10:37:35;;;;;;;1.00;0.90;;;10.00;97.30;;;;;;4969322;28;20426;-90
2022/12/22 10:40:19;;;;;;;1.00;0.90;;;10.00;97.30;;;;;;4968020;28;20938;-91
2022/12/22 10:42:50;;;;;;;1.77;1.67;;;10.00;97.30;;;;;;4974609;28;20853;-90
2022/12/22 10:45:22;;;;;;;1.57;1.43;;;10.10;97.30;;;;;;4961824;28;20485;-90
2022/12/22 10:47:50;;;;;;;1.10;1.03;;;10.10;97.30;;;;;;4973826;28;20456;-90
2022/12/22 10:50:17;;;;;;;1.10;1.00;;;10.10;97.30;;;;;;4974045;28;20429;-91
2022/12/22 10:52:53;;;;;;;0.90;0.80;;;10.10;97.30;;;;;;4992018;28;20444;-91
2022/12/22 10:55:31;;;;;;;1.00;0.90;;;10.10;97.30;;;;;;4987612;28;20460;-90
2022/12/22 10:58:09;;;;;;;1.33;1.03;;;10.20;97.30;;;;;;4984745;28;20463;-90
2022/12/22 11:00:35;;;;;;;1.10;1.00;;;10.20;97.30;;;;;;4971796;28;20951;-90
2022/12/22 11:03:03;;;;;;;1.20;1.13;;;10.30;97.30;;;;;;4960204;28;20496;-91
2022/12/22 11:05:30;;;;;;;0.90;0.80;;;10.30;97.30;;;;;;4963529;28;20436;-91
2022/12/22 11:07:59;;;;;;;1.00;0.90;;;10.40;97.30;;;;;;4973536;28;20461;-90
2022/12/22 11:10:52;;;;;;;1.03;1.03;;;10.40;97.30;;;;;;4967975;28;20441;-90
2022/12/22 11:13:55;;;;;;;1.77;1.57;;;10.50;97.30;;;;;;4967251;28;20472;-90
2022/12/22 11:16:46;;;;;;;1.10;1.00;;;10.60;97.30;;;;;;4956605;28;20413;-90
2022/12/22 11:19:33;;;;;;;1.10;1.00;;;10.70;97.30;;;;;;4982245;28;20501;-90
2022/12/22 11:22:16;;;;;;;1.10;1.00;;;10.70;97.30;;;;;;4964950;28;20413;-90
2022/12/22 11:25:02;;;;;;;0.93;0.83;;;10.70;97.30;;;;;;4970801;28;20444;-90
2022/12/22 11:27:44;;;;;;;0.90;0.80;;;10.80;97.30;;;;;;4971089;28;21042;-89
2022/12/22 11:30:20;;;;;;;0.93;0.83;;;10.80;97.30;;;;;;4965568;28;20433;-90
2022/12/22 11:33:03;;;;;;;0.90;0.80;;;10.80;97.30;;;;;;4973574;28;20534;-90
2022/12/22 11:35:56;;;;;;;0.90;0.80;;;10.80;97.30;;;;;;4973479;28;20420;-90
2022/12/22 11:38:50;;;;;;;0.97;0.87;;;10.80;97.30;;;;;;4972918;28;20464;-89
2022/12/22 11:41:34;;;;;;;0.70;0.70;;;10.90;97.30;;;;;;4964249;28;20434;-90
2022/12/22 11:44:22;;;;;;;1.73;1.40;;;10.90;97.30;;;;;;4973149;28;20828;-91
2022/12/22 11:47:01;;;;;;;1.13;1.03;;;10.90;97.30;;;;;;4972183;28;20435;-89
2022/12/22 11:49:44;;;;;;;1.00;0.90;;;10.90;97.30;;;;;;4989953;28;20815;-90
2022/12/22 11:52:18;;;;;;;1.10;1.00;;;10.90;97.30;;;;;;4972146;28;20540;-90
2022/12/22 11:55:08;;;;;;;1.10;1.00;;;11.00;97.30;;;;;;4972775;28;20495;-89
2022/12/22 11:57:45;;;;;;;1.00;0.90;;;11.00;97.30;;;;;;4973239;28;20436;-90
2022/12/22 12:00:13;;;;;;;1.00;0.90;;;11.00;97.30;;;;;;4967835;28;20430;-90
2022/12/22 12:03:23;;;;;;;1.70;1.60;;;11.00;97.30;;;;;;4984143;28;20881;-90
2022/12/22 12:06:05;;;;;;;1.63;1.53;;;11.00;97.30;;;;;;4936196;28;20430;-90
2022/12/22 12:08:52;;;;;;;1.30;1.20;;;11.00;97.30;;;;;;4955080;28;20468;-90
2022/12/22 12:11:21;;;;;;;1.10;1.00;;;11.00;97.30;;;;;;4970398;28;20931;-90
2022/12/22 12:13:52;;;;;;;1.07;0.97;;;11.00;97.30;;;;;;4967264;28;20477;-90
2022/12/22 12:16:32;;;;;;;1.00;0.90;;;11.00;97.30;;;;;;5006798;23;20496;-83
2022/12/22 12:19:26;;;;;;;1.20;1.10;;;11.10;97.30;;;;;;5004132;28;20431;-82
2022/12/22 12:22:04;;;;;;;0.90;0.80;;;11.10;97.30;;;;;;4993870;28;20467;-83
2022/12/22 12:25:01;;;;;;;0.90;0.80;;;11.10;97.30;;;;;;5002184;28;20428;-83
2022/12/22 12:27:52;;;;;;;0.90;0.80;;;11.10;97.30;;;;;;4995146;28;20471;-84
2022/12/22 12:30:19;;;;;;;1.20;1.10;;;11.20;97.30;;;;;;4994556;28;20970;-82
2022/12/22 12:32:49;;;;;;;1.20;1.10;;;11.20;97.30;;;;;;5000088;28;20524;-84
2022/12/22 12:35:47;;;;;;;1.00;0.90;;;11.20;97.30;;;;;;4983983;28;20425;-84
2022/12/22 12:38:32;;;;;;;0.90;0.80;;;11.20;97.30;;;;;;4963295;28;20428;-84
2022/12/22 12:41:12;;;;;;;0.90;0.80;;;11.20;97.30;;;;;;4983836;28;20489;-83
2022/12/22 12:43:38;;;;;;;4.50;1.73;;;11.20;97.30;;;;;;4982885;28;20428;-83
2022/12/22 12:46:41;;;;;;;1.00;0.90;;;11.10;97.30;;;;;;5004284;28;20514;-84
2022/12/22 12:49:32;;;;;;;1.00;0.90;;;11.10;97.30;;;;;;4991847;28;20452;-83
2022/12/22 12:52:01;;;;;;;0.80;0.70;;;11.00;97.30;;;;;;4980159;28;20923;-84
2022/12/22 12:54:33;;;;;;;0.80;0.70;;;11.00;97.30;;;;;;4994867;28;20463;-83
2022/12/22 12:57:05;;;;;;;0.90;0.80;;;10.90;97.30;;;;;;4979752;28;20955;-84
2022/12/22 12:59:40;;;;;;;0.87;0.77;;;10.80;97.30;;;;;;4983225;28;20549;-83
2022/12/22 13:02:28;;;;;;;0.90;0.80;;;10.80;97.30;;;;;;4997578;28;20444;-83
2022/12/22 13:05:12;;;;;;;1.00;0.90;;;10.70;97.30;;;;;;4974546;28;20433;-83
2022/12/22 13:08:17;;;;;;;0.90;0.80;;;10.60;97.30;;;;;;4995836;28;20547;-84
2022/12/22 13:10:47;;;;;;;0.77;0.70;;;10.60;97.30;;;;;;4991691;28;20759;-83
2022/12/22 13:13:22;;;;;;;0.90;0.80;;;10.60;97.30;;;;;;4988138;28;20432;-84
2022/12/22 13:16:06;;;;;;;0.80;0.70;;;10.50;97.30;;;;;;4989604;28;20547;-83
2022/12/22 13:18:44;;;;;;;0.93;0.83;;;10.50;97.30;;;;;;4965515;28;20941;-84
2022/12/22 13:21:25;;;;;;;1.00;0.90;;;10.50;97.30;;;;;;4980939;28;20927;-84
2022/12/22 13:23:53;;;;;;;0.70;0.70;;;10.50;97.30;;;;;;4984473;28;20423;-83
2022/12/22 13:26:26;;;;;;;3.23;2.70;;;10.50;97.30;;;;;;4987647;28;20444;-82
2022/12/22 13:29:00;;;;;;;2.83;1.57;;;10.50;97.30;;;;;;4985863;28;20618;-83
2022/12/22 13:31:41;;;;;;;3.73;2.80;;;10.50;97.30;;;;;;4987299;28;20431;-83
2022/12/22 13:34:29;;;;;;;1.30;1.20;;;10.40;97.30;;;;;;4981137;28;20798;-84
2022/12/22 13:37:01;;;;;;;5.93;3.70;;;10.40;97.30;;;;;;4980650;28;20420;-84
2022/12/22 13:39:27;;;;;;;11.00;2.73;;;10.40;97.30;;;;;;4983115;28;20421;-82
2022/12/22 13:41:54;;;;;;;1.83;1.80;;;10.40;97.30;;;;;;4986115;28;20427;-84
2022/12/22 13:44:28;;;;;;;2.07;1.50;;;10.40;97.30;;;;;;5003978;28;20643;-82
2022/12/22 13:46:55;;;;;;;4.53;1.27;;;10.40;97.30;;;;;;4968490;28;20837;-84
2022/12/22 13:49:28;;;;;;;1.10;1.00;;;10.40;97.30;;;;;;4993719;28;20494;-84
2022/12/22 13:51:54;;;;;;;2.17;1.00;;;10.40;97.30;;;;;;4980274;28;20453;-84
2022/12/22 13:54:33;;;;;;;1.57;1.03;;;10.40;97.30;;;;;;4981607;28;20496;-84
2022/12/22 13:57:01;;;;;;;1.20;1.10;;;10.40;97.30;;;;;;4987132;28;20189;-84
2022/12/22 13:59:42;;;;;;;0.90;0.80;;;10.30;97.30;;;;;;4960090;28;20422;-83
2022/12/22 14:02:08;;;;;;;1.50;1.40;;;10.30;97.30;;;;;;4975288;28;20424;-83
2022/12/22 14:04:35;;;;;;;4.97;2.90;;;10.30;97.30;;;;;;4981840;28;20484;-83
2022/12/22 14:07:18;;;;;;;2.27;2.07;;;10.30;97.30;;;;;;4998066;28;20174;-83
2022/12/22 14:09:48;;;;;;;1.10;0.90;;;10.30;97.30;;;;;;4970422;28;20512;-84
2022/12/22 14:12:22;;;;;;;1.07;0.97;;;10.30;97.30;;;;;;4980116;28;20417;-83
2022/12/22 14:14:51;;;;;;;1.10;1.00;;;10.30;97.30;;;;;;4981640;28;20441;-84
2022/12/22 14:17:25;;;;;;;1.83;1.63;;;10.30;97.30;;;;;;4980190;28;20421;-84
2022/12/22 14:19:54;;;;;;;1.13;0.97;;;10.20;97.30;;;;;;4980351;28;20424;-84
2022/12/22 14:22:32;;;;;;;0.90;0.80;;;10.20;97.30;;;;;;4979731;28;20429;-83
2022/12/22 14:25:08;;;;;;;0.90;0.80;;;10.20;97.30;;;;;;4979800;28;20456;-83
2022/12/22 14:27:41;;;;;;;0.87;0.77;;;10.20;97.30;;;;;;4987041;28;20459;-84
2022/12/22 14:30:16;;;;;;;0.90;0.80;;;10.10;97.30;;;;;;4983078;28;20448;-83
2022/12/22 14:32:45;;;;;;;0.90;0.80;;;10.10;97.30;;;;;;4980325;28;20413;-84
2022/12/22 14:35:19;;;;;;;0.80;0.70;;;10.10;97.30;;;;;;4979620;28;20437;-84
2022/12/22 14:37:53;;;;;;;2.53;0.90;;;10.10;97.30;;;;;;4990103;28;20435;-84
2022/12/22 14:40:37;;;;;;;1.00;0.90;;;10.10;97.30;;;;;;4981819;28;20444;-83
2022/12/22 14:43:16;;;;;;;0.77;0.73;;;10.10;97.30;;;;;;4984097;28;20834;-83
2022/12/22 14:45:42;;;;;;;1.53;0.90;;;10.10;97.30;;;;;;4989351;28;20452;-83
2022/12/22 14:48:15;;;;;;;0.90;0.80;;;10.10;97.30;;;;;;4979241;28;20460;-84
2022/12/22 14:50:49;;;;;;;2.10;1.63;;;10.00;97.30;;;;;;4990872;28;20859;-83
2022/12/22 14:53:23;;;;;;;1.00;0.90;;;10.00;97.30;;;;;;4992113;28;20444;-83
2022/12/22 14:55:50;;;;;;;3.30;2.20;;;10.10;97.30;;;;;;4991214;28;20859;-84
2022/12/22 14:58:21;;;;;;;1.43;1.40;;;10.00;97.30;;;;;;4985938;28;20428;-83
2022/12/22 15:00:48;;;;;;;1.23;1.13;;;10.00;97.30;;;;;;4995574;28;20428;-84
2022/12/22 15:03:31;;;;;;;1.03;0.93;;;10.00;97.30;;;;;;4979416;28;20935;-84
2022/12/22 15:06:26;;;;;;;1.00;0.90;;;10.00;97.30;;;;;;4992210;28;20441;-84
2022/12/22 15:09:07;;;;;;;1.17;1.07;;;10.00;97.30;;;;;;4979604;28;20757;-83
2022/12/22 15:11:35;;;;;;;1.30;1.20;;;10.00;97.30;;;;;;4972580;28;20425;-84
2022/12/22 15:14:03;;;;;;;1.63;1.50;;;10.00;97.30;;;;;;4968656;28;20421;-84
2022/12/22 15:16:29;;;;;;;1.20;1.10;;;9.90;97.30;;;;;;4971161;28;20468;-84
2022/12/22 15:18:54;;;;;;;1.20;1.10;;;9.80;97.30;;;;;;4990923;28;20425;-84
2022/12/22 15:21:21;;;;;;;2.90;1.67;;;9.80;97.30;;;;;;4976819;28;20197;-84
2022/12/22 15:23:47;;;;;;;2.70;2.50;;;9.80;97.30;;;;;;4993777;28;20188;-84
2022/12/22 15:26:12;;;;;;;2.27;1.23;;;9.70;97.30;;;;;;5005196;28;20835;-84
2022/12/22 15:28:38;;;;;;;2.93;1.63;;;9.70;97.30;;;;;;4994381;28;20205;-84
2022/12/22 15:31:11;;;;;;;3.37;2.20;;;9.70;97.30;;;;;;4982522;28;20178;-85
2022/12/22 15:33:36;;;;;;;2.37;1.67;;;9.70;97.30;;;;;;4987043;28;20188;-84
2022/12/22 15:36:02;;;;;;;3.13;2.30;;;9.70;97.30;;;;;;4993561;28;20449;-84
2022/12/22 15:38:28;;;;;;;2.33;2.13;;;9.70;97.30;;;;;;4984149;28;20244;-84
2022/12/22 15:40:53;;;;;;;5.67;3.40;;;9.70;97.30;;;;;;4981819;28;20178;-84
2022/12/22 15:43:19;;;;;;;3.33;1.93;;;9.70;97.30;;;;;;4981197;28;20182;-83
2022/12/22 15:45:45;;;;;;;2.23;1.70;;;9.60;97.30;;;;;;4982151;28;20202;-82
2022/12/22 15:48:17;;;;;;;2.70;2.20;;;9.60;97.30;;;;;;4982380;28;20205;-84
2022/12/22 15:50:43;;;;;;;3.03;2.90;;;9.60;97.30;;;;;;4981955;28;20440;-83
2022/12/22 15:53:15;;;;;;;1.37;1.30;;;9.60;97.30;;;;;;4983478;28;20516;-84
2022/12/22 15:59:04;;;;;;;14.70;3.97;;;9.60;97.30;;;;;;4928990;29;20425;-84
2022/12/22 16:01:29;;;;;;;3.87;2.73;;;9.60;97.30;;;;;;4931913;29;20485;-83
2022/12/22 16:03:55;;;;;;;2.47;2.20;;;9.50;97.30;;;;;;4956697;28;20417;-84
2022/12/22 16:06:20;;;;;;;5.23;2.33;;;9.50;97.30;;;;;;4981210;28;20185;-85
2022/12/22 16:08:50;;;;;;;2.13;1.67;;;9.50;97.30;;;;;;4981505;28;20213;-84
2022/12/22 16:11:17;;;;;;;4.40;2.63;;;9.50;97.30;;;;;;4982053;28;20185;-84
2022/12/22 16:13:42;;;;;;;1.40;1.30;;;9.50;97.30;;;;;;4982514;28;20431;-84
2022/12/22 16:16:08;;;;;;;20.57;2.10;;;9.40;97.30;;;;;;4994017;28;20453;-83
2022/12/22 16:18:34;;;;;;;5.80;4.87;;;9.40;97.30;;;;;;4975649;28;20423;-84
2022/12/22 16:21:13;;;;;;;4.13;2.47;;;9.40;97.30;;;;;;4982491;28;20185;-82
2022/12/22 16:23:41;;;;;;;3.00;2.73;;;9.30;97.30;;;;;;4970468;28;20202;-83
2022/12/22 16:26:09;;;;;;;5.03;3.87;;;9.30;97.30;;;;;;5000242;28;20441;-83
2022/12/22 16:28:34;;;;;;;1.30;1.30;;;9.30;97.30;;;;;;4983368;28;20467;-83
2022/12/22 16:31:00;;;;;;;1.60;1.53;;;9.20;97.30;;;;;;4983034;28;20412;-83
2022/12/22 16:33:26;;;;;;;3.37;1.83;;;9.20;97.30;;;;;;4980380;28;20273;-84
2022/12/22 16:35:52;;;;;;;4.30;3.80;;;9.20;97.30;;;;;;4976846;28;20266;-81
2022/12/22 16:38:17;;;;;;;1.57;1.50;;;9.10;97.30;;;;;;4971457;28;20624;-79
2022/12/22 16:40:46;;;;;;;1.30;1.20;;;9.10;97.30;;;;;;4963149;28;20440;-85
2022/12/22 16:43:23;;;;;;;11.93;5.27;;;9.00;97.30;;;;;;4979038;28;20189;-85
2022/12/22 16:45:49;;;;;;;5.70;3.30;;;9.00;97.30;;;;;;4981568;28;20440;-85
2022/12/22 16:48:20;;;;;;;8.80;3.27;;;9.00;97.30;;;;;;4994103;28;20530;-85
2022/12/22 16:50:46;;;;;;;6.93;3.63;;;8.90;97.30;;;;;;4977768;28;20306;-85
2022/12/22 16:53:15;;;;;;;8.97;3.80;;;8.90;97.30;;;;;;4979302;28;20418;-85
2022/12/22 16:55:41;;;;;;;5.47;4.33;;;8.90;97.30;;;;;;4988302;28;20475;-85
2022/12/22 16:58:10;;;;;;;6.13;4.13;;;8.90;97.30;;;;;;4988836;28;20439;-84